createdAt,value
2023-02-09T00:00:09.578Z,54.50
2023-02-09T00:02:37.782Z,54.78
2023-02-09T00:05:04.316Z,54.66
2023-02-09T00:07:30.794Z,54.18
2023-02-09T00:09:57.158Z,54.54
2023-02-09T00:12:42.163Z,54.68
2023-02-09T00:15:08.901Z,54.59
2023-02-09T00:17:36.281Z,54.58
2023-02-09T00:20:05.522Z,54.67
2023-02-09T00:22:31.943Z,54.39
2023-02-09T00:24:58.516Z,54.98
2023-02-09T00:27:25.019Z,55.21
2023-02-09T00:29:51.446Z,55.24
2023-02-09T00:32:17.948Z,55.72
2023-02-09T00:34:44.532Z,55.38
2023-02-09T00:37:10.935Z,54.84
2023-02-09T00:39:37.415Z,55.32
2023-02-09T00:42:06.715Z,55.34
2023-02-09T00:44:38.732Z,55.50
2023-02-09T00:47:07.051Z,55.42
2023-02-09T00:49:33.820Z,55.81
2023-02-09T00:52:00.294Z,55.83
2023-02-09T00:54:27.267Z,56.53
2023-02-09T00:56:53.688Z,56.89
2023-02-09T00:59:20.020Z,56.82
2023-02-09T01:01:46.451Z,56.78
2023-02-09T01:04:12.911Z,56.70
2023-02-09T01:06:39.445Z,57.09
2023-02-09T01:09:05.953Z,57.68
2023-02-09T01:11:32.429Z,57.59
2023-02-09T01:14:00.137Z,56.97
2023-02-09T01:16:28.979Z,57.01
2023-02-09T01:18:56.015Z,56.82
2023-02-09T01:21:23.286Z,57.15
2023-02-09T01:23:49.940Z,56.89
2023-02-09T01:26:17.454Z,57.58
2023-02-09T01:28:44.050Z,57.02
2023-02-09T01:31:43.781Z,57.41
2023-02-09T01:34:13.184Z,57.43
2023-02-09T01:36:39.662Z,57.72
2023-02-09T01:39:06.199Z,57.98
2023-02-09T01:41:33.627Z,58.14
2023-02-09T01:44:06.982Z,58.01
2023-02-09T01:46:36.164Z,57.46
2023-02-09T01:49:13.758Z,57.94
2023-02-09T01:52:11.264Z,57.85
2023-02-09T01:54:40.777Z,58.25
2023-02-09T01:57:11.767Z,59.22
2023-02-09T01:59:40.096Z,58.64
2023-02-09T02:02:07.367Z,58.68
2023-02-09T02:04:34.592Z,58.84
2023-02-09T02:07:13.564Z,58.54
2023-02-09T02:09:40.656Z,58.95
2023-02-09T02:12:07.186Z,58.46
2023-02-09T02:14:35.139Z,58.50
2023-02-09T02:17:10.451Z,58.66
2023-02-09T02:19:48.986Z,58.65
2023-02-09T02:22:27.499Z,59.40
2023-02-09T02:25:22.028Z,59.19
2023-02-09T02:28:14.732Z,58.88
2023-02-09T02:31:10.355Z,58.60
2023-02-09T02:33:57.253Z,59.26
2023-02-09T02:36:45.711Z,59.21
2023-02-09T02:39:22.821Z,59.49
2023-02-09T02:42:21.133Z,59.92
2023-02-09T02:45:18.017Z,59.58
2023-02-09T02:47:54.945Z,59.54
2023-02-09T02:50:27.148Z,59.79
2023-02-09T02:52:57.719Z,59.47
2023-02-09T02:55:27.648Z,59.78
2023-02-09T02:57:58.629Z,60.31
2023-02-09T03:00:31.824Z,60.30
2023-02-09T03:03:03.934Z,59.83
2023-02-09T03:05:31.020Z,59.77
2023-02-09T03:07:57.455Z,59.44
2023-02-09T03:10:34.540Z,60.28
2023-02-09T03:13:10.008Z,60.19
2023-02-09T03:15:42.558Z,60.49
2023-02-09T03:18:21.304Z,60.32
2023-02-09T03:20:52.646Z,59.86
2023-02-09T03:23:56.455Z,60.19
2023-02-09T03:26:30.549Z,59.79
2023-02-09T03:28:59.299Z,59.97
2023-02-09T03:31:28.398Z,59.57
2023-02-09T03:33:57.281Z,59.77
2023-02-09T03:36:25.540Z,60.16
2023-02-09T03:38:51.963Z,60.16
2023-02-09T03:41:18.411Z,60.16
2023-02-09T03:44:03.478Z,60.72
2023-02-09T03:46:29.923Z,60.32
2023-02-09T03:48:56.348Z,60.39
2023-02-09T03:51:22.778Z,60.67
2023-02-09T03:53:49.106Z,60.18
2023-02-09T03:56:15.525Z,60.83
2023-02-09T03:58:42.121Z,60.48
2023-02-09T04:01:10.659Z,60.99
2023-02-09T04:03:39.615Z,61.11
2023-02-09T04:06:06.355Z,61.08
2023-02-09T04:08:33.173Z,61.12
2023-02-09T04:10:59.993Z,61.17
2023-02-09T04:13:26.609Z,61.19
2023-02-09T04:15:53.130Z,61.18
2023-02-09T04:18:20.010Z,61.39
2023-02-09T04:20:46.922Z,61.22
2023-02-09T04:23:13.885Z,61.47
2023-02-09T04:25:40.246Z,61.30
2023-02-09T04:28:06.774Z,61.54
2023-02-09T04:30:33.284Z,61.26
2023-02-09T04:32:59.658Z,61.63
2023-02-09T04:35:26.150Z,61.64
2023-02-09T04:37:52.483Z,62.03
2023-02-09T04:40:19.283Z,61.82
2023-02-09T04:42:46.500Z,62.36
2023-02-09T04:45:13.088Z,62.17
2023-02-09T04:47:39.576Z,62.10
2023-02-09T04:50:06.283Z,61.90
2023-02-09T04:52:32.673Z,62.06
2023-02-09T04:54:59.157Z,61.73
2023-02-09T04:57:44.357Z,62.28
2023-02-09T05:00:11.472Z,62.64
2023-02-09T05:02:37.928Z,62.20
2023-02-09T05:05:04.560Z,62.67
2023-02-09T05:07:31.172Z,62.20
2023-02-09T05:09:57.512Z,62.68
2023-02-09T05:12:23.947Z,62.74
2023-02-09T05:14:50.359Z,62.23
2023-02-09T05:17:20.886Z,62.08
2023-02-09T05:19:48.215Z,61.85
2023-02-09T05:22:15.351Z,62.20
2023-02-09T05:24:41.749Z,62.02
2023-02-09T05:27:08.125Z,62.31
2023-02-09T05:29:34.697Z,62.62
2023-02-09T05:32:01.103Z,62.52
2023-02-09T05:34:27.479Z,62.59
2023-02-09T05:36:53.931Z,62.78
2023-02-09T05:39:20.471Z,63.21
2023-02-09T05:42:05.189Z,62.80
2023-02-09T05:44:31.592Z,62.85
2023-02-09T05:46:57.962Z,62.88
2023-02-09T05:49:24.481Z,62.88
2023-02-09T05:51:51.101Z,63.32
2023-02-09T05:54:17.602Z,63.35
2023-02-09T05:56:44.520Z,63.56
2023-02-09T05:59:10.885Z,63.26
2023-02-09T06:01:37.486Z,63.59
2023-02-09T06:04:04.091Z,64.08
2023-02-09T06:06:30.402Z,64.06
2023-02-09T06:08:56.896Z,64.08
2023-02-09T06:11:23.364Z,63.86
2023-02-09T06:13:49.838Z,64.01
2023-02-09T06:16:16.283Z,64.07
2023-02-09T06:18:42.679Z,64.39
2023-02-09T06:21:09.025Z,64.54
2023-02-09T06:23:35.537Z,64.96
2023-02-09T06:26:10.279Z,64.92
2023-02-09T06:28:37.231Z,64.86
2023-02-09T06:31:05.274Z,64.89
2023-02-09T06:33:32.331Z,64.90
2023-02-09T06:35:58.841Z,65.06
2023-02-09T06:38:25.226Z,64.98
2023-02-09T06:40:51.614Z,64.63
2023-02-09T06:43:18.382Z,64.86
2023-02-09T06:45:44.686Z,64.83
2023-02-09T06:48:11.050Z,64.83
2023-02-09T06:50:38.958Z,64.92
2023-02-09T06:53:06.102Z,65.20
2023-02-09T06:55:33.381Z,65.12
2023-02-09T06:58:00.582Z,65.26
2023-02-09T07:00:27.343Z,64.98
2023-02-09T07:02:54.261Z,65.14
2023-02-09T07:05:21.319Z,65.12
2023-02-09T07:07:47.738Z,65.04
2023-02-09T07:10:16.328Z,64.78
2023-02-09T07:12:45.634Z,65.01
2023-02-09T07:15:13.784Z,64.96
2023-02-09T07:17:40.816Z,64.50
2023-02-09T07:20:09.089Z,64.46
2023-02-09T07:22:35.897Z,64.92
2023-02-09T07:25:02.296Z,64.72
2023-02-09T07:27:28.752Z,64.64
2023-02-09T07:29:55.096Z,65.02
2023-02-09T07:32:23.797Z,65.17
2023-02-09T07:34:50.406Z,64.87
2023-02-09T07:37:16.791Z,64.88
2023-02-09T07:39:43.401Z,64.75
2023-02-09T07:42:09.984Z,65.08
2023-02-09T07:44:36.323Z,64.60
2023-02-09T07:47:02.801Z,64.51
2023-02-09T07:49:29.181Z,64.54
2023-02-09T07:51:55.543Z,63.88
2023-02-09T07:54:22.078Z,64.45
2023-02-09T07:56:48.382Z,64.43
2023-02-09T07:59:14.856Z,64.87
2023-02-09T08:01:41.303Z,63.95
2023-02-09T08:04:07.699Z,64.42
2023-02-09T08:06:42.579Z,63.82
2023-02-09T08:09:10.883Z,63.53
2023-02-09T08:12:09.299Z,63.83
2023-02-09T08:14:44.191Z,63.50
2023-02-09T08:17:20.440Z,62.88
2023-02-09T08:19:52.637Z,63.43
2023-02-09T08:22:19.795Z,62.72
2023-02-09T08:24:46.250Z,62.84
2023-02-09T08:27:12.738Z,62.73
2023-02-09T08:29:39.440Z,62.26
2023-02-09T08:32:05.811Z,62.42
2023-02-09T08:34:32.197Z,62.05
2023-02-09T08:36:58.666Z,62.09
2023-02-09T08:39:25.050Z,62.24
2023-02-09T08:41:51.509Z,62.00
2023-02-09T08:44:17.850Z,61.47
2023-02-09T08:46:44.369Z,60.78
2023-02-09T08:49:10.879Z,60.64
2023-02-09T08:51:37.327Z,60.54
2023-02-09T08:54:03.679Z,60.23
2023-02-09T08:56:30.048Z,60.33
2023-02-09T08:58:56.403Z,60.16
2023-02-09T09:01:22.842Z,59.97
2023-02-09T09:03:49.550Z,59.53
2023-02-09T09:06:16.097Z,59.04
2023-02-09T09:08:42.585Z,58.83
2023-02-09T09:11:12.984Z,59.01
2023-02-09T09:13:41.247Z,59.05
2023-02-09T09:16:13.330Z,58.18
2023-02-09T09:18:39.695Z,58.61
2023-02-09T09:21:06.145Z,58.08
2023-02-09T09:23:32.463Z,57.78
2023-02-09T09:26:03.224Z,57.92
2023-02-09T09:28:30.960Z,57.96
2023-02-09T09:30:59.833Z,57.58
2023-02-09T09:33:26.292Z,57.66
2023-02-09T09:35:52.610Z,57.48
2023-02-09T09:38:19.291Z,57.56
2023-02-09T09:40:46.009Z,57.26
2023-02-09T09:43:32.387Z,56.37
2023-02-09T09:45:59.954Z,56.44
2023-02-09T09:48:35.236Z,56.32
2023-02-09T09:51:10.384Z,56.05
2023-02-09T09:53:37.922Z,56.13
2023-02-09T09:56:07.867Z,56.16
2023-02-09T09:58:35.294Z,55.62
2023-02-09T10:01:01.738Z,55.38
2023-02-09T10:03:28.117Z,55.25
2023-02-09T10:05:59.814Z,54.99
2023-02-09T10:08:35.557Z,54.54
2023-02-09T10:11:09.997Z,54.70
2023-02-09T10:13:44.179Z,54.56
2023-02-09T10:16:27.407Z,54.63
2023-02-09T10:18:59.132Z,54.29
2023-02-09T10:21:29.363Z,54.10
2023-02-09T10:24:01.600Z,53.73
2023-02-09T10:26:31.071Z,53.29
2023-02-09T10:29:19.021Z,53.36
2023-02-09T10:31:50.540Z,53.41
2023-02-09T10:34:21.152Z,52.95
2023-02-09T10:37:04.012Z,52.50
2023-02-09T10:39:34.169Z,52.66
2023-02-09T10:42:32.689Z,52.64
2023-02-09T10:45:07.037Z,52.39
2023-02-09T10:47:33.530Z,52.25
2023-02-09T10:50:14.048Z,52.02
2023-02-09T10:53:14.575Z,51.94
2023-02-09T10:55:42.493Z,52.17
2023-02-09T10:58:20.368Z,52.03
2023-02-09T11:01:00.593Z,51.94
2023-02-09T11:03:27.002Z,51.54
2023-02-09T11:06:16.638Z,51.31
2023-02-09T11:09:08.290Z,50.86
2023-02-09T11:11:40.258Z,50.87
2023-02-09T11:14:12.670Z,50.45
2023-02-09T11:16:54.473Z,50.75
2023-02-09T11:19:22.499Z,50.67
2023-02-09T11:22:13.042Z,50.68
2023-02-09T11:25:18.480Z,50.66
2023-02-09T11:27:57.021Z,50.10
2023-02-09T11:30:51.154Z,50.00
2023-02-09T11:33:41.517Z,50.08
2023-02-09T11:36:20.527Z,49.96
2023-02-09T11:38:56.144Z,49.53
2023-02-09T11:42:02.495Z,49.56
2023-02-09T11:44:44.030Z,49.30
2023-02-09T11:47:19.161Z,48.75
2023-02-09T11:49:49.172Z,48.69
2023-02-09T11:52:38.414Z,48.47
2023-02-09T11:55:45.448Z,47.89
2023-02-09T11:58:41.204Z,48.12
2023-02-09T12:01:15.780Z,48.19
2023-02-09T12:04:02.256Z,47.90
2023-02-09T12:06:36.306Z,47.51
2023-02-09T12:09:19.896Z,47.36
2023-02-09T12:12:09.095Z,47.08
2023-02-09T12:14:45.336Z,46.80
2023-02-09T12:17:25.924Z,47.13
2023-02-09T12:20:00.567Z,47.01
2023-02-09T12:22:33.040Z,46.66
2023-02-09T12:25:11.664Z,46.94
2023-02-09T12:27:41.981Z,46.63
2023-02-09T12:30:42.671Z,46.59
2023-02-09T12:33:24.359Z,46.51
2023-02-09T12:36:08.880Z,46.59
2023-02-09T12:38:54.466Z,46.54
2023-02-09T12:41:25.655Z,46.04
2023-02-09T12:44:10.380Z,45.43
2023-02-09T12:46:51.865Z,45.95
2023-02-09T12:49:21.145Z,45.35
2023-02-09T12:51:50.654Z,45.48
2023-02-09T12:54:26.160Z,45.74
2023-02-09T12:56:52.630Z,45.09
2023-02-09T12:59:22.675Z,45.01
2023-02-09T13:02:07.616Z,45.00
2023-02-09T13:04:38.769Z,45.25
2023-02-09T13:07:15.138Z,45.28
2023-02-09T13:09:42.828Z,45.28
2023-02-09T13:12:21.070Z,45.30
2023-02-09T13:14:50.228Z,45.18
2023-02-09T13:17:48.722Z,45.14
2023-02-09T13:20:36.080Z,44.28
2023-02-09T13:23:30.966Z,44.19
2023-02-09T13:26:18.459Z,44.40
2023-02-09T13:28:45.087Z,44.22
2023-02-09T13:31:35.549Z,43.95
2023-02-09T13:34:23.828Z,43.86
2023-02-09T13:37:10.477Z,43.92
2023-02-09T13:39:38.627Z,45.44
2023-02-09T13:42:22.611Z,46.32
2023-02-09T13:44:54.691Z,44.58
2023-02-09T13:47:21.965Z,43.99
2023-02-09T13:50:03.985Z,44.21
2023-02-09T13:52:37.684Z,43.81
2023-02-09T13:55:31.871Z,43.05
2023-02-09T13:58:05.226Z,43.00
2023-02-09T14:00:39.742Z,42.84
2023-02-09T14:03:13.880Z,42.85
2023-02-09T14:09:46.444Z,42.43
2023-02-09T14:12:19.461Z,42.62
2023-02-09T14:15:14.307Z,42.16
2023-02-09T14:17:50.819Z,41.51
2023-02-09T14:20:23.281Z,41.73
2023-02-09T14:22:58.468Z,41.25
2023-02-09T14:25:29.731Z,41.01
2023-02-09T14:27:57.306Z,40.71
2023-02-09T14:30:32.110Z,40.52
2023-02-09T14:33:02.494Z,39.93
2023-02-09T14:35:31.926Z,39.58
2023-02-09T14:38:00.989Z,39.55
2023-02-09T14:40:27.643Z,39.15
2023-02-09T14:43:10.966Z,38.76
2023-02-09T14:45:43.212Z,39.27
2023-02-09T14:48:18.007Z,39.42
2023-02-09T14:50:44.566Z,39.41
2023-02-09T14:53:14.115Z,39.00
2023-02-09T14:55:40.595Z,39.06
2023-02-09T14:58:11.624Z,38.53
2023-02-09T15:00:38.151Z,38.66
2023-02-09T15:03:04.605Z,38.97
2023-02-09T15:05:31.000Z,39.16
2023-02-09T15:08:05.735Z,39.17
2023-02-09T15:10:44.028Z,39.62
2023-02-09T15:13:13.111Z,39.58
2023-02-09T15:15:39.783Z,39.94
2023-02-09T15:18:07.188Z,40.48
2023-02-09T15:20:34.012Z,40.76
2023-02-09T15:23:00.780Z,40.94
2023-02-09T15:25:28.787Z,41.27
2023-02-09T15:27:59.980Z,41.43
2023-02-09T15:30:30.598Z,41.56
2023-02-09T15:32:57.067Z,42.14
2023-02-09T15:35:26.268Z,41.75
2023-02-09T15:37:59.617Z,42.08
2023-02-09T15:40:52.823Z,42.06
2023-02-09T15:43:40.100Z,41.81
2023-02-09T15:46:26.522Z,42.23
2023-02-09T15:48:54.124Z,42.49
2023-02-09T15:51:22.019Z,42.33
2023-02-09T15:53:48.960Z,42.50
2023-02-09T15:56:15.933Z,42.38
2023-02-09T15:58:45.793Z,42.83
2023-02-09T16:01:15.556Z,43.06
2023-02-09T16:03:42.909Z,43.11
2023-02-09T16:06:22.113Z,43.29
2023-02-09T16:08:48.942Z,43.42
2023-02-09T16:11:21.758Z,43.55
2023-02-09T16:13:49.075Z,43.67
2023-02-09T16:16:17.902Z,43.75
2023-02-09T16:18:45.692Z,43.83
2023-02-09T16:21:22.142Z,44.17
2023-02-09T16:23:48.797Z,44.55
2023-02-09T16:26:15.224Z,44.42
2023-02-09T16:28:41.684Z,45.15
2023-02-09T16:31:10.389Z,45.73
2023-02-09T16:33:38.747Z,45.95
2023-02-09T16:36:13.652Z,46.41
2023-02-09T16:38:40.121Z,46.61
2023-02-09T16:41:26.662Z,46.52
2023-02-09T16:43:53.126Z,47.42
2023-02-09T16:46:19.531Z,48.02
2023-02-09T16:48:46.600Z,48.21
2023-02-09T16:51:14.768Z,48.56
2023-02-09T16:53:48.108Z,48.91
2023-02-09T16:56:15.627Z,49.19
2023-02-09T16:58:42.953Z,49.22
2023-02-09T17:01:19.496Z,50.25
2023-02-09T17:03:54.160Z,50.34
2023-02-09T17:06:23.586Z,50.25
2023-02-09T17:08:50.960Z,50.72
2023-02-09T17:11:23.137Z,51.17
2023-02-09T17:13:50.057Z,51.43
2023-02-09T17:16:18.809Z,51.40
2023-02-09T17:18:47.145Z,51.19
2023-02-09T17:21:28.519Z,51.96
2023-02-09T17:23:57.272Z,52.31
2023-02-09T17:26:24.736Z,52.75
2023-02-09T17:28:51.740Z,53.22
2023-02-09T17:31:27.711Z,53.60
2023-02-09T17:33:56.735Z,54.05
2023-02-09T17:36:28.444Z,54.65
2023-02-09T17:38:57.380Z,54.93
2023-02-09T17:41:26.771Z,55.13
2023-02-09T17:43:53.584Z,55.38
2023-02-09T17:46:21.195Z,55.52
2023-02-09T17:48:48.490Z,55.55
2023-02-09T17:51:23.407Z,56.38
2023-02-09T17:53:49.901Z,57.12
2023-02-09T17:56:16.878Z,57.17
2023-02-09T17:58:44.634Z,57.21
2023-02-09T18:01:26.339Z,57.34
2023-02-09T18:03:55.490Z,57.46
2023-02-09T18:06:27.513Z,57.31
2023-02-09T18:08:53.898Z,57.98
2023-02-09T18:11:20.262Z,57.93
2023-02-09T18:13:46.676Z,58.20
2023-02-09T18:16:13.586Z,58.51
2023-02-09T18:18:40.071Z,58.62
2023-02-09T18:21:09.002Z,58.80
2023-02-09T18:23:35.345Z,58.78
2023-02-09T18:26:01.756Z,58.95
2023-02-09T18:28:28.244Z,59.24
2023-02-09T18:30:54.790Z,59.07
2023-02-09T18:33:21.116Z,58.85
2023-02-09T18:35:47.842Z,59.44
2023-02-09T18:38:15.148Z,59.36
2023-02-09T18:40:41.540Z,59.39
2023-02-09T18:43:08.036Z,59.75
2023-02-09T18:45:34.734Z,59.93
2023-02-09T18:48:01.319Z,60.41
2023-02-09T18:50:30.482Z,60.56
2023-02-09T18:53:00.444Z,60.37
2023-02-09T18:55:30.630Z,60.27
2023-02-09T18:57:59.570Z,60.64
2023-02-09T19:00:26.630Z,61.10
2023-02-09T19:02:57.376Z,60.90
2023-02-09T19:05:26.241Z,61.41
2023-02-09T19:07:53.174Z,62.13
2023-02-09T19:10:20.793Z,61.72
2023-02-09T19:12:47.328Z,62.14
2023-02-09T19:15:18.755Z,61.61
2023-02-09T19:17:45.420Z,61.88
2023-02-09T19:20:17.669Z,61.64
2023-02-09T19:22:44.518Z,62.40
2023-02-09T19:25:10.938Z,62.62
2023-02-09T19:27:37.447Z,62.75
2023-02-09T19:30:04.240Z,62.42
2023-02-09T19:32:30.648Z,62.63
2023-02-09T19:34:57.195Z,62.65
2023-02-09T19:37:24.087Z,63.07
2023-02-09T19:40:00.329Z,63.12
2023-02-09T19:42:29.618Z,63.38
2023-02-09T19:44:56.262Z,63.07
2023-02-09T19:47:25.825Z,63.10
2023-02-09T19:49:57.911Z,63.05
2023-02-09T19:52:25.781Z,62.93
2023-02-09T19:54:52.311Z,62.96
2023-02-09T19:57:20.870Z,63.55
2023-02-09T19:59:47.665Z,63.77
2023-02-09T20:02:15.471Z,63.62
2023-02-09T20:04:43.113Z,63.31
2023-02-09T20:07:13.958Z,63.18
2023-02-09T20:09:40.388Z,63.40
2023-02-09T20:12:06.859Z,63.78
2023-02-09T20:14:33.665Z,64.01
2023-02-09T20:17:00.426Z,64.07
2023-02-09T20:19:27.114Z,64.03
2023-02-09T20:21:53.590Z,64.64
2023-02-09T20:24:20.084Z,64.46
2023-02-09T20:26:46.748Z,64.13
2023-02-09T20:29:13.754Z,64.22
2023-02-09T20:31:41.398Z,64.30
2023-02-09T20:34:11.436Z,63.45
2023-02-09T20:36:39.754Z,63.88
2023-02-09T20:39:09.908Z,63.97
2023-02-09T20:41:36.356Z,63.51
2023-02-09T20:44:21.478Z,63.82
2023-02-09T20:46:56.888Z,64.23
2023-02-09T20:49:36.213Z,63.85
2023-02-09T20:52:02.620Z,64.06
2023-02-09T20:54:31.669Z,63.86
2023-02-09T20:56:58.893Z,63.81
2023-02-09T20:59:25.393Z,63.96
2023-02-09T21:01:52.302Z,64.82
2023-02-09T21:04:18.716Z,64.77
2023-02-09T21:06:45.415Z,65.15
2023-02-09T21:09:14.566Z,65.98
2023-02-09T21:11:42.084Z,67.40
2023-02-09T21:14:13.475Z,67.87
2023-02-09T21:16:55.289Z,68.93
2023-02-09T21:19:23.765Z,69.94
2023-02-09T21:21:50.459Z,69.96
2023-02-09T21:24:19.104Z,70.18
2023-02-09T21:26:45.882Z,70.85
2023-02-09T21:29:13.727Z,71.31
2023-02-09T21:31:40.756Z,71.52
2023-02-09T21:34:07.300Z,72.05
2023-02-09T21:36:33.723Z,72.75
2023-02-09T21:39:00.754Z,73.74
2023-02-09T21:41:45.948Z,74.00
2023-02-09T21:44:12.968Z,74.53
2023-02-09T21:46:39.343Z,75.22
2023-02-09T21:49:06.268Z,75.67
2023-02-09T21:51:32.615Z,75.92
2023-02-09T21:53:59.313Z,76.60
2023-02-09T21:56:26.085Z,76.90
2023-02-09T21:58:52.691Z,77.25
2023-02-09T22:01:19.139Z,77.66
2023-02-09T22:03:49.502Z,77.29
2023-02-09T22:06:15.917Z,78.18
2023-02-09T22:08:42.497Z,79.86
2023-02-09T22:11:08.926Z,80.01
2023-02-09T22:13:35.404Z,80.64
2023-02-09T22:16:08.315Z,81.19
2023-02-09T22:18:34.969Z,81.51
2023-02-09T22:21:01.761Z,82.15
2023-02-09T22:23:28.320Z,82.67
2023-02-09T22:25:59.658Z,82.47
2023-02-09T22:28:26.582Z,82.76
2023-02-09T22:30:53.232Z,83.53
2023-02-09T22:33:20.681Z,84.39
2023-02-09T22:35:48.478Z,84.68
2023-02-09T22:38:15.185Z,85.27
2023-02-09T22:40:41.656Z,85.34
2023-02-09T22:43:08.059Z,85.51
2023-02-09T22:45:34.408Z,84.90
2023-02-09T22:48:00.762Z,85.39
2023-02-09T22:50:27.152Z,85.24
2023-02-09T22:52:53.590Z,85.06
2023-02-09T22:55:19.956Z,85.15
2023-02-09T22:57:46.280Z,85.49
2023-02-09T23:00:15.164Z,85.36
2023-02-09T23:02:41.579Z,85.29
2023-02-09T23:05:08.201Z,85.67
2023-02-09T23:07:34.535Z,85.79
2023-02-09T23:10:00.888Z,86.01
2023-02-09T23:12:27.238Z,86.20
2023-02-09T23:14:54.782Z,86.47
2023-02-09T23:17:21.303Z,85.94
2023-02-09T23:19:47.767Z,86.41
2023-02-09T23:22:14.159Z,86.30
2023-02-09T23:24:40.706Z,86.86
2023-02-09T23:27:07.171Z,87.04
2023-02-09T23:29:33.641Z,87.53
2023-02-09T23:31:59.987Z,87.40
2023-02-09T23:34:26.373Z,87.49
2023-02-09T23:36:52.912Z,87.54
2023-02-09T23:39:22.308Z,87.72
2023-02-09T23:41:49.281Z,87.83
2023-02-09T23:44:15.856Z,87.86
2023-02-09T23:46:42.408Z,87.99
2023-02-09T23:49:08.777Z,87.82
2023-02-09T23:51:35.828Z,87.89
2023-02-09T23:54:04.813Z,88.06
2023-02-09T23:56:36.894Z,88.12
2023-02-09T23:59:05.667Z,87.93
